Time;durP1;ratioP1;P1;durP2;ratioP2;P2;SDS_P1;SDS_P2;PMS_P1;PMS_P2;Temp;Humidity;BMP_temperature;BMP_pressure;BME280_temperature;BME280_humidity;BME280_pressure;Samples;Min_cycle;Max_cycle;Signal;HPM_P1;HPM_P2
2022/07/28 00:00:36;;;;;;;;;;;;;;;;;;2090045;28;20436;-43
2022/07/28 00:01:37;;;;;;;;;;;;;;;;;;2089947;28;19929;-43
2022/07/28 00:02:38;;;;;;;;;;;;;;;;;;2090058;28;19967;-43
2022/07/28 00:03:39;;;;;;;;;;;;;;;;;;2089833;28;19979;-44
2022/07/28 00:04:39;;;;;;;;;;;;;;;;;;2090038;28;20221;-43
2022/07/28 00:05:40;;;;;;;;;;;;;;;;;;2089777;28;19968;-45
2022/07/28 00:06:41;;;;;;;;;;;;;;;;;;2089721;28;20390;-43
2022/07/28 00:07:42;;;;;;;;;;;;;;;;;;2089751;28;19978;-43
2022/07/28 00:08:43;;;;;;;;;;;;;;;;;;2089979;28;20019;-43
2022/07/28 00:09:44;;;;;;;;;;;;;;;;;;2089926;28;20371;-43
2022/07/28 00:10:44;;;;;;;;;;;;;;;;;;2089759;28;20293;-44
2022/07/28 00:11:45;;;;;;;;;;;;;;;;;;2082975;28;19971;-43
2022/07/28 00:12:54;;;;;;;;;;;;;;;;;;2081697;28;19932;-44
2022/07/28 00:13:55;;;;;;;;;;;;;;;;;;2081562;28;19925;-44
2022/07/28 00:14:56;;;;;;;;;;;;;;;;;;2081584;28;19999;-43
2022/07/28 00:15:57;;;;;;;;;;;;;;;;;;2081675;28;19979;-44
2022/07/28 00:16:58;;;;;;;;;;;;;;;;;;2081457;28;20007;-44
2022/07/28 00:17:59;;;;;;;;;;;;;;;;;;2081527;28;20074;-43
2022/07/28 00:19:00;;;;;;;;;;;;;;;;;;2081535;28;20028;-43
2022/07/28 00:20:01;;;;;;;;;;;;;;;;;;2081521;28;19929;-43
2022/07/28 00:21:02;;;;;;;;;;;;;;;;;;2081669;28;20008;-45
2022/07/28 00:22:03;;;;;;;;;;;;;;;;;;2081458;28;19931;-47
2022/07/28 00:23:04;;;;;;;;;;;;;;;;;;2081526;28;20374;-48
2022/07/28 00:24:05;;;;;;;;;;;;;;;;;;2081731;28;19925;-46
2022/07/28 00:25:05;;;;;;;;;;;;;;;;;;2081440;28;19925;-46
2022/07/28 00:26:06;;;;;;;;;;;;;;;;;;2081380;28;19968;-45
2022/07/28 00:27:08;;;;;;;;;;;;;;;;;;2081517;28;20016;-48
2022/07/28 00:28:09;;;;;;;;;;;;;;;;;;2081387;28;19925;-45
2022/07/28 00:29:09;;;;;;;;;;;;;;;;;;2081456;28;20497;-46
2022/07/28 00:30:10;;;;;;;;;;;;;;;;;;2081447;28;19937;-46
2022/07/28 00:31:11;;;;;;;;;;;;;;;;;;2081405;28;20028;-45
2022/07/28 00:32:12;;;;;;;;;;;;;;;;;;2081576;28;19925;-46
2022/07/28 00:33:13;;;;;;;;;;;;;;;;;;2081536;28;19925;-45
2022/07/28 00:34:14;;;;;;;;;;;;;;;;;;2081345;28;19994;-45
2022/07/28 00:35:15;;;;;;;;;;;;;;;;;;2081434;28;20326;-46
2022/07/28 00:36:16;;;;;;;;;;;;;;;;;;2081524;28;19972;-46
2022/07/28 00:37:17;;;;;;;;;;;;;;;;;;2081327;28;20468;-46
2022/07/28 00:38:18;;;;;;;;;;;;;;;;;;2081712;28;19976;-46
2022/07/28 00:39:19;;;;;;;;;;;;;;;;;;2081519;28;19968;-46
2022/07/28 00:40:20;;;;;;;;;;;;;;;;;;2081336;28;20333;-46
2022/07/28 00:41:21;;;;;;;;;;;;;;;;;;2081303;28;19925;-46
2022/07/28 00:42:22;;;;;;;;;;;;;;;;;;2085977;28;19924;-46
2022/07/28 00:43:23;;;;;;;;;;;;;;;;;;2089595;28;19971;-47
2022/07/28 00:44:24;;;;;;;;;;;;;;;;;;2089956;28;20343;-45
2022/07/28 00:45:25;;;;;;;;;;;;;;;;;;2089618;28;20036;-45
2022/07/28 00:46:26;;;;;;;;;;;;;;;;;;2089522;28;19940;-46
2022/07/28 00:47:27;;;;;;;;;;;;;;;;;;2089752;28;20015;-46
2022/07/28 00:48:28;;;;;;;;;;;;;;;;;;2089518;28;19959;-47
2022/07/28 00:49:29;;;;;;;;;;;;;;;;;;2089514;28;20413;-45
2022/07/28 00:50:30;;;;;;;;;;;;;;;;;;2089583;28;20024;-46
2022/07/28 00:51:31;;;;;;;;;;;;;;;;;;2088760;28;20055;-47
2022/07/28 00:52:31;;;;;;;;;;;;;;;;;;2089476;28;19925;-46
2022/07/28 00:53:32;;;;;;;;;;;;;;;;;;2089648;28;20082;-47
2022/07/28 00:54:33;;;;;;;;;;;;;;;;;;2089633;28;19932;-46
2022/07/28 00:55:34;;;;;;;;;;;;;;;;;;2089517;28;19929;-48
2022/07/28 00:56:55;;;;;;;;;;;;;;;;;;2089676;28;19993;-46
2022/07/28 00:57:56;;;;;;;;;;;;;;;;;;2089503;28;19929;-46
2022/07/28 00:58:57;;;;;;;;;;;;;;;;;;2089720;28;20023;-46
2022/07/28 00:59:58;;;;;;;;;;;;;;;;;;2089527;28;19967;-46
2022/07/28 01:00:59;;;;;;;;;;;;;;;;;;2089738;28;20015;-46
2022/07/28 01:02:00;;;;;;;;;;;;;;;;;;2089349;28;20393;-46
2022/07/28 01:03:00;;;;;;;;;;;;;;;;;;2089696;28;19932;-46
2022/07/28 01:04:01;;;;;;;;;;;;;;;;;;2089828;28;19925;-44
2022/07/28 01:05:02;;;;;;;;;;;;;;;;;;2089435;28;20289;-45
2022/07/28 01:06:03;;;;;;;;;;;;;;;;;;2089458;28;19925;-44
2022/07/28 01:07:04;;;;;;;;;;;;;;;;;;2089628;28;19925;-44
2022/07/28 01:08:05;;;;;;;;;;;;;;;;;;2089369;28;20346;-44
2022/07/28 01:09:06;;;;;;;;;;;;;;;;;;2089617;28;20019;-45
2022/07/28 01:10:07;;;;;;;;;;;;;;;;;;2089443;28;20020;-44
2022/07/28 01:11:07;;;;;;;;;;;;;;;;;;2087602;28;20441;-43
2022/07/28 01:12:08;;;;;;;;;;;;;;;;;;2081361;28;19932;-46
2022/07/28 01:13:09;;;;;;;;;;;;;;;;;;2081173;28;20022;-44
2022/07/28 01:14:10;;;;;;;;;;;;;;;;;;2081385;28;19964;-43
2022/07/28 01:15:11;;;;;;;;;;;;;;;;;;2081242;28;19980;-44
2022/07/28 01:16:12;;;;;;;;;;;;;;;;;;2081233;28;19929;-45
2022/07/28 01:17:13;;;;;;;;;;;;;;;;;;2081235;28;19925;-44
2022/07/28 01:18:14;;;;;;;;;;;;;;;;;;2081501;28;19932;-43
2022/07/28 01:19:15;;;;;;;;;;;;;;;;;;2081369;28;20024;-44
2022/07/28 01:20:16;;;;;;;;;;;;;;;;;;2081161;28;19991;-46
2022/07/28 01:21:17;;;;;;;;;;;;;;;;;;2081197;28;20083;-44
2022/07/28 01:22:18;;;;;;;;;;;;;;;;;;2081160;28;20421;-43
2022/07/28 01:23:19;;;;;;;;;;;;;;;;;;2081104;28;20381;-45
2022/07/28 01:24:20;;;;;;;;;;;;;;;;;;2081130;28;19932;-44
2022/07/28 01:25:21;;;;;;;;;;;;;;;;;;2081187;28;20023;-46
2022/07/28 01:26:22;;;;;;;;;;;;;;;;;;2081021;28;19932;-44
2022/07/28 01:27:22;;;;;;;;;;;;;;;;;;2081203;28;19948;-43
2022/07/28 01:28:23;;;;;;;;;;;;;;;;;;2081523;28;19929;-47
2022/07/28 01:29:24;;;;;;;;;;;;;;;;;;2081227;28;20012;-46
2022/07/28 01:30:25;;;;;;;;;;;;;;;;;;2081631;28;19931;-44
2022/07/28 01:31:28;;;;;;;;;;;;;;;;;;2081022;28;19968;-43
2022/07/28 01:32:29;;;;;;;;;;;;;;;;;;2081060;28;20019;-43
2022/07/28 01:33:29;;;;;;;;;;;;;;;;;;2081065;28;20445;-44
2022/07/28 01:34:30;;;;;;;;;;;;;;;;;;2081153;28;19968;-46
2022/07/28 01:35:31;;;;;;;;;;;;;;;;;;2081149;28;20164;-43
2022/07/28 01:36:32;;;;;;;;;;;;;;;;;;2081262;28;19932;-44
2022/07/28 01:37:33;;;;;;;;;;;;;;;;;;2081156;28;20012;-45
2022/07/28 01:38:34;;;;;;;;;;;;;;;;;;2085034;28;19959;-44
2022/07/28 01:39:34;;;;;;;;;;;;;;;;;;2089232;28;19948;-44
2022/07/28 01:40:36;;;;;;;;;;;;;;;;;;2089465;28;19925;-44
2022/07/28 01:41:36;;;;;;;;;;;;;;;;;;2089327;28;20039;-46
2022/07/28 01:42:37;;;;;;;;;;;;;;;;;;2089322;28;19929;-46
2022/07/28 01:43:38;;;;;;;;;;;;;;;;;;2089412;28;19935;-46
2022/07/28 01:44:39;;;;;;;;;;;;;;;;;;2089365;28;19979;-46
2022/07/28 01:45:40;;;;;;;;;;;;;;;;;;2089431;28;20336;-47
2022/07/28 01:46:41;;;;;;;;;;;;;;;;;;2089309;28;19924;-46
2022/07/28 01:47:41;;;;;;;;;;;;;;;;;;2089430;28;19932;-46
2022/07/28 01:48:42;;;;;;;;;;;;;;;;;;2089407;28;20010;-47
2022/07/28 01:49:43;;;;;;;;;;;;;;;;;;2089479;28;19931;-46
2022/07/28 01:50:44;;;;;;;;;;;;;;;;;;2089417;28;20141;-46
2022/07/28 01:51:45;;;;;;;;;;;;;;;;;;2089230;28;19924;-46
2022/07/28 01:52:46;;;;;;;;;;;;;;;;;;2089258;28;20012;-45
2022/07/28 01:53:47;;;;;;;;;;;;;;;;;;2089108;28;19928;-46
2022/07/28 01:54:48;;;;;;;;;;;;;;;;;;2089406;28;19924;-47
2022/07/28 01:55:50;;;;;;;;;;;;;;;;;;2089594;28;20333;-47
2022/07/28 01:56:50;;;;;;;;;;;;;;;;;;2089255;28;19931;-48
2022/07/28 01:57:51;;;;;;;;;;;;;;;;;;2089129;28;20409;-46
2022/07/28 01:58:54;;;;;;;;;;;;;;;;;;2089228;28;20397;-46
2022/07/28 01:59:55;;;;;;;;;;;;;;;;;;2089247;28;20019;-47
2022/07/28 02:00:56;;;;;;;;;;;;;;;;;;2089278;28;20015;-46
2022/07/28 02:01:57;;;;;;;;;;;;;;;;;;2089251;28;20062;-47
2022/07/28 02:02:58;;;;;;;;;;;;;;;;;;2089983;28;20409;-46
2022/07/28 02:03:59;;;;;;;;;;;;;;;;;;2090784;28;19972;-46
2022/07/28 02:05:00;;;;;;;;;;;;;;;;;;2090640;28;19925;-46
2022/07/28 02:06:01;;;;;;;;;;;;;;;;;;2090498;28;20305;-47
2022/07/28 02:07:02;;;;;;;;;;;;;;;;;;2090627;28;20507;-46
2022/07/28 02:08:03;;;;;;;;;;;;;;;;;;2090759;28;19925;-46
2022/07/28 02:09:04;;;;;;;;;;;;;;;;;;2090668;28;19925;-46
2022/07/28 02:10:05;;;;;;;;;;;;;;;;;;2090707;28;19955;-47
2022/07/28 02:12:33;;;;;;;;;;;;;;;;;;2065050;28;20361;-47
2022/07/28 02:13:34;;;;;;;;;;;;;;;;;;2075595;28;20008;-48
2022/07/28 02:14:35;;;;;;;;;;;;;;;;;;2082484;28;20004;-45
2022/07/28 02:15:36;;;;;;;;;;;;;;;;;;2082493;28;20014;-46
2022/07/28 02:16:39;;;;;;;;;;;;;;;;;;2082361;28;19929;-47
2022/07/28 02:17:41;;;;;;;;;;;;;;;;;;2082697;28;20193;-43
2022/07/28 02:18:41;;;;;;;;;;;;;;;;;;2082303;28;20474;-44
2022/07/28 02:19:42;;;;;;;;;;;;;;;;;;2082426;28;19968;-43
2022/07/28 02:20:43;;;;;;;;;;;;;;;;;;2082524;28;20016;-44
2022/07/28 02:21:46;;;;;;;;;;;;;;;;;;2082334;28;19936;-44
2022/07/28 02:22:47;;;;;;;;;;;;;;;;;;2082241;28;20205;-43
2022/07/28 02:23:51;;;;;;;;;;;;;;;;;;2082296;28;19925;-44
2022/07/28 02:24:52;;;;;;;;;;;;;;;;;;2082820;28;19968;-43
2022/07/28 02:25:53;;;;;;;;;;;;;;;;;;2082410;28;20012;-44
2022/07/28 02:26:54;;;;;;;;;;;;;;;;;;2082184;28;20421;-44
2022/07/28 02:27:55;;;;;;;;;;;;;;;;;;2082432;28;20044;-44
2022/07/28 02:28:56;;;;;;;;;;;;;;;;;;2082412;28;19937;-43
2022/07/28 02:29:56;;;;;;;;;;;;;;;;;;2082250;28;20019;-43
2022/07/28 02:30:57;;;;;;;;;;;;;;;;;;2082280;28;19979;-43
2022/07/28 02:31:58;;;;;;;;;;;;;;;;;;2082198;28;19932;-44
2022/07/28 02:32:59;;;;;;;;;;;;;;;;;;2082329;28;19925;-43
2022/07/28 02:34:00;;;;;;;;;;;;;;;;;;2082350;28;19925;-46
2022/07/28 02:35:02;;;;;;;;;;;;;;;;;;2087878;28;20007;-46
2022/07/28 02:36:03;;;;;;;;;;;;;;;;;;2090359;28;19932;-45
2022/07/28 02:37:04;;;;;;;;;;;;;;;;;;2090700;28;19966;-46
2022/07/28 02:38:05;;;;;;;;;;;;;;;;;;2090568;28;20004;-48
2022/07/28 02:39:06;;;;;;;;;;;;;;;;;;2090610;28;19925;-46
2022/07/28 02:40:07;;;;;;;;;;;;;;;;;;2090477;28;19958;-47
2022/07/28 02:41:08;;;;;;;;;;;;;;;;;;2090294;28;20086;-46
2022/07/28 02:42:08;;;;;;;;;;;;;;;;;;2090524;28;19925;-46
2022/07/28 02:43:09;;;;;;;;;;;;;;;;;;2090385;28;20011;-46
2022/07/28 02:44:10;;;;;;;;;;;;;;;;;;2090460;28;20379;-47
2022/07/28 02:45:12;;;;;;;;;;;;;;;;;;2090305;28;19932;-46
2022/07/28 02:46:12;;;;;;;;;;;;;;;;;;2090331;28;20434;-46
2022/07/28 02:47:13;;;;;;;;;;;;;;;;;;2090413;28;19932;-46
2022/07/28 02:48:14;;;;;;;;;;;;;;;;;;2090678;28;20016;-46
2022/07/28 02:49:15;;;;;;;;;;;;;;;;;;2090549;28;19925;-44
2022/07/28 02:50:16;;;;;;;;;;;;;;;;;;2090372;28;19974;-43
2022/07/28 02:51:17;;;;;;;;;;;;;;;;;;2090379;28;19970;-43
2022/07/28 02:52:18;;;;;;;;;;;;;;;;;;2090316;28;20004;-44
2022/07/28 02:53:19;;;;;;;;;;;;;;;;;;2090429;28;19925;-46
2022/07/28 02:54:19;;;;;;;;;;;;;;;;;;2090266;28;20432;-46
2022/07/28 02:55:20;;;;;;;;;;;;;;;;;;2090413;28;20009;-46
2022/07/28 02:56:21;;;;;;;;;;;;;;;;;;2090232;28;19932;-46
2022/07/28 02:57:22;;;;;;;;;;;;;;;;;;2090350;28;20015;-46
2022/07/28 02:58:23;;;;;;;;;;;;;;;;;;2090590;28;20028;-44
2022/07/28 02:59:24;;;;;;;;;;;;;;;;;;2090577;28;19931;-44
2022/07/28 03:00:25;;;;;;;;;;;;;;;;;;2090278;28;19983;-45
2022/07/28 03:01:26;;;;;;;;;;;;;;;;;;2090325;28;19971;-47
2022/07/28 03:02:29;;;;;;;;;;;;;;;;;;2090518;28;20015;-45
2022/07/28 03:03:30;;;;;;;;;;;;;;;;;;2090243;28;20019;-46
2022/07/28 03:05:50;;;;;;;;;;;;;;;;;;2090243;28;19932;-47
2022/07/28 03:06:51;;;;;;;;;;;;;;;;;;2090219;28;20021;-46
2022/07/28 03:07:53;;;;;;;;;;;;;;;;;;2090473;28;19974;-46
2022/07/28 03:08:54;;;;;;;;;;;;;;;;;;2090267;28;20427;-44
2022/07/28 03:09:55;;;;;;;;;;;;;;;;;;2090161;28;20105;-44
2022/07/28 03:10:56;;;;;;;;;;;;;;;;;;2090345;28;20031;-44
2022/07/28 03:11:57;;;;;;;;;;;;;;;;;;2081971;28;19929;-44
2022/07/28 03:12:59;;;;;;;;;;;;;;;;;;2082020;28;20008;-44
2022/07/28 03:14:00;;;;;;;;;;;;;;;;;;2081908;28;20015;-43
2022/07/28 03:15:02;;;;;;;;;;;;;;;;;;2081662;28;20428;-43
2022/07/28 03:16:03;;;;;;;;;;;;;;;;;;2081953;28;20006;-44
2022/07/28 03:17:04;;;;;;;;;;;;;;;;;;2081927;28;19960;-43
2022/07/28 03:18:05;;;;;;;;;;;;;;;;;;2082107;28;19936;-43
2022/07/28 03:19:06;;;;;;;;;;;;;;;;;;2082013;28;19925;-45
2022/07/28 03:20:08;;;;;;;;;;;;;;;;;;2081947;28;20023;-44
2022/07/28 03:21:09;;;;;;;;;;;;;;;;;;2081912;28;20019;-43
2022/07/28 03:22:10;;;;;;;;;;;;;;;;;;2081868;28;20267;-43
2022/07/28 03:23:11;;;;;;;;;;;;;;;;;;2082297;28;19925;-46
2022/07/28 03:24:12;;;;;;;;;;;;;;;;;;2081923;28;20374;-46
2022/07/28 03:25:13;;;;;;;;;;;;;;;;;;2081970;28;19925;-46
2022/07/28 03:26:14;;;;;;;;;;;;;;;;;;2081996;28;20004;-46
2022/07/28 03:27:15;;;;;;;;;;;;;;;;;;2082095;28;20321;-44
2022/07/28 03:28:18;;;;;;;;;;;;;;;;;;2081829;28;19932;-44
2022/07/28 03:29:19;;;;;;;;;;;;;;;;;;2081966;28;20359;-45
2022/07/28 03:30:20;;;;;;;;;;;;;;;;;;2082089;28;19932;-45
2022/07/28 03:31:20;;;;;;;;;;;;;;;;;;2087834;28;19928;-44
2022/07/28 03:32:21;;;;;;;;;;;;;;;;;;2089974;28;19929;-44
2022/07/28 03:33:22;;;;;;;;;;;;;;;;;;2090017;28;20370;-44
2022/07/28 03:34:23;;;;;;;;;;;;;;;;;;2089988;28;20448;-44
2022/07/28 03:35:24;;;;;;;;;;;;;;;;;;2090118;28;20011;-44
2022/07/28 03:36:25;;;;;;;;;;;;;;;;;;2089974;28;19975;-45
2022/07/28 03:37:26;;;;;;;;;;;;;;;;;;2089965;28;20016;-45
2022/07/28 03:38:27;;;;;;;;;;;;;;;;;;2090170;28;19935;-44
2022/07/28 03:39:28;;;;;;;;;;;;;;;;;;2090006;28;20095;-44
2022/07/28 03:40:33;;;;;;;;;;;;;;;;;;2089940;28;20020;-43
2022/07/28 03:41:33;;;;;;;;;;;;;;;;;;2089928;28;19974;-44
2022/07/28 03:42:34;;;;;;;;;;;;;;;;;;2090211;28;20362;-45
2022/07/28 03:43:35;;;;;;;;;;;;;;;;;;2090080;28;19928;-44
2022/07/28 03:44:37;;;;;;;;;;;;;;;;;;2090172;28;20012;-44
2022/07/28 03:45:38;;;;;;;;;;;;;;;;;;2089968;28;20061;-44
2022/07/28 03:46:41;;;;;;;;;;;;;;;;;;2090077;28;19947;-44
2022/07/28 03:47:42;;;;;;;;;;;;;;;;;;2089940;28;19924;-45
2022/07/28 03:48:43;;;;;;;;;;;;;;;;;;2089985;28;19925;-44
2022/07/28 03:49:44;;;;;;;;;;;;;;;;;;2089965;28;20267;-45
2022/07/28 03:50:45;;;;;;;;;;;;;;;;;;2089941;28;19971;-44
2022/07/28 03:51:46;;;;;;;;;;;;;;;;;;2090138;28;19925;-45
2022/07/28 03:52:47;;;;;;;;;;;;;;;;;;2090268;28;20007;-44
2022/07/28 03:53:48;;;;;;;;;;;;;;;;;;2089988;28;19964;-44
2022/07/28 03:54:48;;;;;;;;;;;;;;;;;;2089884;28;20285;-44
2022/07/28 03:55:49;;;;;;;;;;;;;;;;;;2090051;28;19970;-44
2022/07/28 03:56:50;;;;;;;;;;;;;;;;;;2089866;28;19925;-47
2022/07/28 03:57:51;;;;;;;;;;;;;;;;;;2089831;28;19947;-44
2022/07/28 03:58:52;;;;;;;;;;;;;;;;;;2090151;28;19925;-47
2022/07/28 03:59:53;;;;;;;;;;;;;;;;;;2089934;28;19955;-47
2022/07/28 04:00:54;;;;;;;;;;;;;;;;;;2089932;28;19925;-46
2022/07/28 04:01:55;;;;;;;;;;;;;;;;;;2089999;28;19925;-43
2022/07/28 04:02:56;;;;;;;;;;;;;;;;;;2089917;28;20311;-44
2022/07/28 04:03:57;;;;;;;;;;;;;;;;;;2090128;28;19929;-43
2022/07/28 04:04:58;;;;;;;;;;;;;;;;;;2089792;28;20416;-44
2022/07/28 04:05:59;;;;;;;;;;;;;;;;;;2089849;28;19925;-43
2022/07/28 04:07:00;;;;;;;;;;;;;;;;;;2089873;28;19944;-43
2022/07/28 04:08:00;;;;;;;;;;;;;;;;;;2089737;28;19924;-43
2022/07/28 04:09:01;;;;;;;;;;;;;;;;;;2089864;28;19924;-45
2022/07/28 04:10:02;;;;;;;;;;;;;;;;;;2089983;28;20293;-44
2022/07/28 04:11:03;;;;;;;;;;;;;;;;;;2088680;28;19947;-47
2022/07/28 04:12:04;;;;;;;;;;;;;;;;;;2081705;28;19926;-47
2022/07/28 04:13:05;;;;;;;;;;;;;;;;;;2081683;28;19974;-45
2022/07/28 04:14:06;;;;;;;;;;;;;;;;;;2081449;28;20452;-46
2022/07/28 04:15:07;;;;;;;;;;;;;;;;;;2081684;28;20016;-46
2022/07/28 04:16:07;;;;;;;;;;;;;;;;;;2081831;28;19929;-43
2022/07/28 04:17:08;;;;;;;;;;;;;;;;;;2081608;28;19963;-44
2022/07/28 04:18:10;;;;;;;;;;;;;;;;;;2081998;28;19932;-44
2022/07/28 04:19:11;;;;;;;;;;;;;;;;;;2081548;28;20027;-44
2022/07/28 04:20:12;;;;;;;;;;;;;;;;;;2081755;28;19932;-43
2022/07/28 04:21:13;;;;;;;;;;;;;;;;;;2081806;28;20217;-43
2022/07/28 04:22:14;;;;;;;;;;;;;;;;;;2099887;22;20017;-46
2022/07/28 04:23:15;;;;;;;;;;;;;;;;;;2106566;28;19954;-44
2022/07/28 04:24:15;;;;;;;;;;;;;;;;;;2106670;28;20258;-44
2022/07/28 04:25:17;;;;;;;;;;;;;;;;;;2106362;28;19924;-44
2022/07/28 04:26:18;;;;;;;;;;;;;;;;;;2106494;28;20383;-46
2022/07/28 04:27:19;;;;;;;;;;;;;;;;;;2106115;28;19924;-46
2022/07/28 04:28:20;;;;;;;;;;;;;;;;;;2106255;28;19924;-46
2022/07/28 04:29:21;;;;;;;;;;;;;;;;;;2106347;28;20081;-46
2022/07/28 04:30:23;;;;;;;;;;;;;;;;;;2106314;28;19924;-47
2022/07/28 04:31:24;;;;;;;;;;;;;;;;;;2106346;28;20018;-46
2022/07/28 04:32:25;;;;;;;;;;;;;;;;;;2106537;28;19925;-46
2022/07/28 04:33:26;;;;;;;;;;;;;;;;;;2106423;28;20374;-47
2022/07/28 04:34:27;;;;;;;;;;;;;;;;;;2106581;28;20397;-46
2022/07/28 04:35:29;;;;;;;;;;;;;;;;;;2106680;28;19924;-45
2022/07/28 04:36:30;;;;;;;;;;;;;;;;;;2106273;28;19965;-44
2022/07/28 04:37:31;;;;;;;;;;;;;;;;;;2106610;28;19924;-46
2022/07/28 04:38:33;;;;;;;;;;;;;;;;;;2106226;28;19928;-46
2022/07/28 04:39:34;;;;;;;;;;;;;;;;;;2106518;28;20033;-46
2022/07/28 04:40:35;;;;;;;;;;;;;;;;;;2106728;28;19924;-46
2022/07/28 04:41:36;;;;;;;;;;;;;;;;;;2106120;28;19963;-43
2022/07/28 04:42:37;;;;;;;;;;;;;;;;;;2106905;28;19912;-47
2022/07/28 04:43:38;;;;;;;;;;;;;;;;;;2106471;28;20568;-45
2022/07/28 04:44:41;;;;;;;;;;;;;;;;;;2106713;28;19958;-46
2022/07/28 04:45:42;;;;;;;;;;;;;;;;;;2106449;28;19935;-46
2022/07/28 04:46:46;;;;;;;;;;;;;;;;;;2106425;28;20056;-44
2022/07/28 04:47:47;;;;;;;;;;;;;;;;;;2106970;28;19938;-47
2022/07/28 04:48:48;;;;;;;;;;;;;;;;;;2106455;28;19931;-44
2022/07/28 04:49:49;;;;;;;;;;;;;;;;;;2107023;28;19973;-46
2022/07/28 04:50:51;;;;;;;;;;;;;;;;;;2107097;28;19924;-46
2022/07/28 04:51:52;;;;;;;;;;;;;;;;;;2106392;28;19930;-48
2022/07/28 04:52:53;;;;;;;;;;;;;;;;;;2106446;28;19955;-46
2022/07/28 04:53:54;;;;;;;;;;;;;;;;;;2106061;28;20031;-48
2022/07/28 04:54:55;;;;;;;;;;;;;;;;;;2106561;28;19956;-46
2022/07/28 04:55:56;;;;;;;;;;;;;;;;;;2106808;28;20577;-44
2022/07/28 04:56:56;;;;;;;;;;;;;;;;;;2106131;28;20010;-44
2022/07/28 04:57:58;;;;;;;;;;;;;;;;;;2107121;28;19969;-44
2022/07/28 04:59:00;;;;;;;;;;;;;;;;;;2106658;28;19989;-46
2022/07/28 05:00:01;;;;;;;;;;;;;;;;;;2106568;28;20270;-44
2022/07/28 05:01:02;;;;;;;;;;;;;;;;;;2106597;28;19931;-44
2022/07/28 05:02:03;;;;;;;;;;;;;;;;;;2106586;28;19930;-46
2022/07/28 05:03:04;;;;;;;;;;;;;;;;;;2106511;28;19924;-45
2022/07/28 05:04:05;;;;;;;;;;;;;;;;;;2106418;28;20258;-47
2022/07/28 05:05:05;;;;;;;;;;;;;;;;;;2106481;28;19928;-47
2022/07/28 05:06:06;;;;;;;;;;;;;;;;;;2106202;28;20400;-47
2022/07/28 05:07:07;;;;;;;;;;;;;;;;;;2106478;28;19924;-47
2022/07/28 05:08:13;;;;;;;;;;;;;;;;;;2106599;28;19924;-47
2022/07/28 05:09:14;;;;;;;;;;;;;;;;;;2107057;28;20003;-44
2022/07/28 05:10:15;;;;;;;;;;;;;;;;;;2106136;28;20295;-45
2022/07/28 05:11:15;;;;;;;;;;;;;;;;;;2103317;28;19924;-45
2022/07/28 05:12:16;;;;;;;;;;;;;;;;;;2098182;28;19935;-44
2022/07/28 05:13:17;;;;;;;;;;;;;;;;;;2098020;28;20066;-47
2022/07/28 05:14:18;;;;;;;;;;;;;;;;;;2098201;28;19974;-48
2022/07/28 05:15:19;;;;;;;;;;;;;;;;;;2098598;28;19924;-45
2022/07/28 05:16:20;;;;;;;;;;;;;;;;;;2098181;28;19964;-45
2022/07/28 05:17:21;;;;;;;;;;;;;;;;;;2097755;28;19924;-45
2022/07/28 05:18:22;;;;;;;;;;;;;;;;;;2098220;28;19931;-47
2022/07/28 05:19:23;;;;;;;;;;;;;;;;;;2098165;28;19925;-47
2022/07/28 05:20:24;;;;;;;;;;;;;;;;;;2098079;28;19932;-48
2022/07/28 05:21:24;;;;;;;;;;;;;;;;;;2097809;28;20051;-45
2022/07/28 05:22:26;;;;;;;;;;;;;;;;;;2098060;28;19978;-44
2022/07/28 05:23:27;;;;;;;;;;;;;;;;;;2100513;28;20011;-44
2022/07/28 05:24:27;;;;;;;;;;;;;;;;;;2106368;28;19971;-47
2022/07/28 05:25:28;;;;;;;;;;;;;;;;;;2106217;28;19931;-45
2022/07/28 05:26:31;;;;;;;;;;;;;;;;;;2106748;28;20075;-44
2022/07/28 05:27:32;;;;;;;;;;;;;;;;;;2106312;28;20010;-47
2022/07/28 05:28:33;;;;;;;;;;;;;;;;;;2106565;28;20007;-47
2022/07/28 05:29:37;;;;;;;;;;;;;;;;;;2106491;28;20015;-48
2022/07/28 05:30:47;;;;;;;;;;;;;;;;;;2106094;28;20377;-48
2022/07/28 05:31:48;;;;;;;;;;;;;;;;;;2106692;28;19924;-47
2022/07/28 05:32:49;;;;;;;;;;;;;;;;;;2106674;28;19923;-45
2022/07/28 05:33:50;;;;;;;;;;;;;;;;;;2105790;28;20010;-45
2022/07/28 05:34:51;;;;;;;;;;;;;;;;;;2106400;28;20447;-45
2022/07/28 05:35:52;;;;;;;;;;;;;;;;;;2106314;28;19924;-47
2022/07/28 05:36:53;;;;;;;;;;;;;;;;;;2106023;28;20312;-45
2022/07/28 05:37:54;;;;;;;;;;;;;;;;;;2107827;28;20010;-47
2022/07/28 05:38:55;;;;;;;;;;;;;;;;;;2107420;28;20378;-48
2022/07/28 05:39:56;;;;;;;;;;;;;;;;;;2107610;28;19968;-47
2022/07/28 05:40:57;;;;;;;;;;;;;;;;;;2108418;28;19953;-47
2022/07/28 05:41:58;;;;;;;;;;;;;;;;;;2108131;28;19928;-47
2022/07/28 05:42:59;;;;;;;;;;;;;;;;;;2107402;28;19956;-47
2022/07/28 05:44:00;;;;;;;;;;;;;;;;;;2107527;28;19978;-46
2022/07/28 05:45:01;;;;;;;;;;;;;;;;;;2108425;28;20014;-47
2022/07/28 05:46:02;;;;;;;;;;;;;;;;;;2107765;28;19928;-46
2022/07/28 05:47:02;;;;;;;;;;;;;;;;;;2107603;28;19924;-47
2022/07/28 05:48:03;;;;;;;;;;;;;;;;;;2107565;28;20448;-43
2022/07/28 05:49:04;;;;;;;;;;;;;;;;;;2108177;28;19924;-47
2022/07/28 05:50:06;;;;;;;;;;;;;;;;;;2108080;28;19924;-48
2022/07/28 05:51:06;;;;;;;;;;;;;;;;;;2107396;28;20011;-47
2022/07/28 05:52:07;;;;;;;;;;;;;;;;;;2107422;28;19959;-47
2022/07/28 05:53:08;;;;;;;;;;;;;;;;;;2107979;28;20447;-47
2022/07/28 05:54:09;;;;;;;;;;;;;;;;;;2108294;28;19931;-48
2022/07/28 05:55:10;;;;;;;;;;;;;;;;;;2108293;28;20019;-48
2022/07/28 05:56:11;;;;;;;;;;;;;;;;;;2107462;28;20371;-47
2022/07/28 05:57:12;;;;;;;;;;;;;;;;;;2108455;28;20007;-44
2022/07/28 05:58:16;;;;;;;;;;;;;;;;;;2107843;28;19939;-44
2022/07/28 05:59:17;;;;;;;;;;;;;;;;;;2107217;28;20366;-44
2022/07/28 06:00:18;;;;;;;;;;;;;;;;;;2107414;28;20026;-45
2022/07/28 06:01:19;;;;;;;;;;;;;;;;;;2108220;28;19928;-46
2022/07/28 06:02:20;;;;;;;;;;;;;;;;;;2107866;28;19931;-43
2022/07/28 06:03:21;;;;;;;;;;;;;;;;;;2108075;28;20369;-48
2022/07/28 06:04:22;;;;;;;;;;;;;;;;;;2107911;28;19924;-44
2022/07/28 06:05:28;;;;;;;;;;;;;;;;;;2107718;28;20292;-44
2022/07/28 06:06:29;;;;;;;;;;;;;;;;;;2107885;28;19966;-48
2022/07/28 06:07:30;;;;;;;;;;;;;;;;;;2107903;28;19931;-43
2022/07/28 06:08:44;;;;;;;;;;;;;;;;;;2107701;28;20390;-46
2022/07/28 06:09:45;;;;;;;;;;;;;;;;;;2107290;28;19928;-48
2022/07/28 06:10:58;;;;;;;;;;;;;;;;;;2107687;28;20355;-44
2022/07/28 06:11:59;;;;;;;;;;;;;;;;;;2099391;28;19932;-44
2022/07/28 06:13:02;;;;;;;;;;;;;;;;;;2098814;28;19931;-44
2022/07/28 06:14:04;;;;;;;;;;;;;;;;;;2099471;28;20369;-43
2022/07/28 06:15:04;;;;;;;;;;;;;;;;;;2100485;28;20359;-50
2022/07/28 06:16:05;;;;;;;;;;;;;;;;;;2098925;28;19968;-45
2022/07/28 06:17:10;;;;;;;;;;;;;;;;;;2099579;28;20013;-48
2022/07/28 06:18:11;;;;;;;;;;;;;;;;;;2098912;28;20430;-43
2022/07/28 06:19:11;;;;;;;;;;;;;;;;;;2098923;28;19974;-44
2022/07/28 06:20:12;;;;;;;;;;;;;;;;;;2106337;28;20058;-47
2022/07/28 06:21:13;;;;;;;;;;;;;;;;;;2107472;28;20388;-43
2022/07/28 06:22:14;;;;;;;;;;;;;;;;;;2107396;28;20018;-48
2022/07/28 06:23:15;;;;;;;;;;;;;;;;;;2107579;28;19971;-43
2022/07/28 06:24:18;;;;;;;;;;;;;;;;;;2108743;28;20332;-46
2022/07/28 06:25:19;;;;;;;;;;;;;;;;;;2107495;28;20015;-47
2022/07/28 06:26:20;;;;;;;;;;;;;;;;;;2107425;28;19973;-43
2022/07/28 06:27:21;;;;;;;;;;;;;;;;;;2107696;28;20393;-43
2022/07/28 06:28:22;;;;;;;;;;;;;;;;;;2107259;28;19954;-43
2022/07/28 06:29:23;;;;;;;;;;;;;;;;;;2107720;28;19974;-43
2022/07/28 06:30:24;;;;;;;;;;;;;;;;;;2107312;28;19975;-43
2022/07/28 06:31:25;;;;;;;;;;;;;;;;;;2107350;28;20016;-46
2022/07/28 06:32:26;;;;;;;;;;;;;;;;;;2107436;28;19925;-50
2022/07/28 06:33:27;;;;;;;;;;;;;;;;;;2106950;28;19928;-47
2022/07/28 06:34:27;;;;;;;;;;;;;;;;;;2107333;28;19963;-43
2022/07/28 06:35:28;;;;;;;;;;;;;;;;;;2107306;28;20002;-48
2022/07/28 06:36:30;;;;;;;;;;;;;;;;;;2107228;28;19960;-47
2022/07/28 06:37:30;;;;;;;;;;;;;;;;;;2108103;28;20007;-47
2022/07/28 06:38:31;;;;;;;;;;;;;;;;;;2107614;28;20262;-47
2022/07/28 06:39:33;;;;;;;;;;;;;;;;;;2107031;28;19924;-47
2022/07/28 06:40:34;;;;;;;;;;;;;;;;;;2107051;28;19967;-47
2022/07/28 06:41:40;;;;;;;;;;;;;;;;;;2107575;28;19959;-44
2022/07/28 06:42:41;;;;;;;;;;;;;;;;;;2108049;28;20033;-49
2022/07/28 06:43:41;;;;;;;;;;;;;;;;;;2107501;28;19924;-47
2022/07/28 06:44:44;;;;;;;;;;;;;;;;;;2107174;28;19963;-48
2022/07/28 06:45:59;;;;;;;;;;;;;;;;;;2107224;28;20381;-43
2022/07/28 06:46:59;;;;;;;;;;;;;;;;;;2107090;28;19977;-47
2022/07/28 06:48:01;;;;;;;;;;;;;;;;;;2107538;28;19924;-44
2022/07/28 06:49:01;;;;;;;;;;;;;;;;;;2106484;28;20023;-43
2022/07/28 06:50:02;;;;;;;;;;;;;;;;;;2106953;28;19974;-43
2022/07/28 06:51:03;;;;;;;;;;;;;;;;;;2107499;28;20027;-47
2022/07/28 06:52:05;;;;;;;;;;;;;;;;;;2107642;28;20402;-47
2022/07/28 06:53:05;;;;;;;;;;;;;;;;;;2107281;28;19942;-47
2022/07/28 06:54:06;;;;;;;;;;;;;;;;;;2107359;28;19927;-47
2022/07/28 06:55:14;;;;;;;;;;;;;;;;;;2107291;28;20027;-44
2022/07/28 06:56:15;;;;;;;;;;;;;;;;;;2107224;28;19966;-47
2022/07/28 06:57:17;;;;;;;;;;;;;;;;;;2107898;28;19974;-44
2022/07/28 06:58:18;;;;;;;;;;;;;;;;;;2107117;28;19924;-49
2022/07/28 06:59:19;;;;;;;;;;;;;;;;;;2107519;28;20019;-45
2022/07/28 07:00:20;;;;;;;;;;;;;;;;;;2106866;28;20376;-45
2022/07/28 07:01:21;;;;;;;;;;;;;;;;;;2107380;28;19951;-44